createdAt,value
2023-05-01T00:01:07.074Z,99.90
2023-05-01T00:03:40.253Z,99.90
2023-05-01T00:06:10.845Z,99.90
2023-05-01T00:08:39.557Z,99.90
2023-05-01T00:11:10.007Z,99.90
2023-05-01T00:13:38.761Z,99.90
2023-05-01T00:16:10.417Z,99.90
2023-05-01T00:18:39.529Z,99.90
2023-05-01T00:21:08.077Z,99.90
2023-05-01T00:23:38.148Z,99.90
2023-05-01T00:26:06.691Z,99.90
2023-05-01T00:28:38.106Z,99.90
2023-05-01T00:31:06.801Z,99.90
2023-05-01T00:33:38.022Z,99.90
2023-05-01T00:36:07.064Z,99.90
2023-05-01T00:38:37.142Z,99.90
2023-05-01T00:41:05.805Z,99.90
2023-05-01T00:43:34.587Z,99.90
2023-05-01T00:46:06.370Z,99.90
2023-05-01T00:48:35.124Z,99.90
2023-05-01T00:51:06.407Z,99.90
2023-05-01T00:53:35.149Z,99.90
2023-05-01T00:56:05.968Z,99.90
2023-05-01T00:58:36.477Z,99.90
2023-05-01T01:01:06.212Z,99.90
2023-05-01T01:03:34.928Z,99.90
2023-05-01T01:06:11.695Z,99.90
2023-05-01T01:08:44.326Z,99.90
2023-05-01T01:11:26.072Z,99.90
2023-05-01T01:13:59.385Z,99.90
2023-05-01T01:16:34.192Z,99.90
2023-05-01T01:19:26.289Z,99.90
2023-05-01T01:22:03.723Z,99.90
2023-05-01T01:24:53.567Z,99.90
2023-05-01T01:27:47.181Z,99.90
2023-05-01T01:30:45.703Z,99.90
2023-05-01T01:33:39.235Z,99.90
2023-05-01T01:36:17.241Z,99.90
2023-05-01T01:38:50.043Z,99.90
2023-05-01T01:41:25.435Z,99.90
2023-05-01T01:44:02.619Z,99.90
2023-05-01T01:46:39.669Z,99.90
2023-05-01T01:49:20.601Z,99.90
2023-05-01T01:51:55.304Z,99.90
2023-05-01T01:54:33.739Z,99.90
2023-05-01T01:57:03.696Z,99.90
2023-05-01T01:59:34.942Z,99.90
2023-05-01T02:02:05.406Z,99.90
2023-05-01T02:04:35.474Z,99.90
2023-05-01T02:07:07.059Z,99.90
2023-05-01T02:09:36.659Z,99.90
2023-05-01T02:12:07.691Z,99.90
2023-05-01T02:14:38.406Z,99.90
2023-05-01T02:17:09.607Z,99.90
2023-05-01T02:19:44.437Z,99.90
2023-05-01T02:22:18.946Z,99.90
2023-05-01T02:24:48.631Z,99.90
2023-05-01T02:27:21.166Z,99.90
2023-05-01T02:29:49.968Z,99.90
2023-05-01T02:32:18.626Z,99.90
2023-05-01T02:34:52.147Z,99.90
2023-05-01T02:37:22.439Z,99.90
2023-05-01T02:39:51.394Z,99.90
2023-05-01T02:42:23.220Z,99.90
2023-05-01T02:44:58.839Z,99.90
2023-05-01T02:47:31.460Z,99.90
2023-05-01T02:50:03.895Z,99.90
2023-05-01T02:52:35.913Z,99.90
2023-05-01T02:55:05.674Z,99.90
2023-05-01T02:57:37.491Z,99.90
2023-05-01T03:00:14.248Z,99.90
2023-05-01T03:02:46.251Z,99.90
2023-05-01T03:05:17.954Z,99.90
2023-05-01T03:07:48.466Z,99.90
2023-05-01T03:10:17.184Z,99.90
2023-05-01T03:12:46.031Z,99.90
2023-05-01T03:15:14.693Z,99.90
2023-05-01T03:17:43.489Z,99.90
2023-05-01T03:20:13.135Z,99.90
2023-05-01T03:22:41.966Z,99.90
2023-05-01T03:25:12.320Z,99.90
2023-05-01T03:27:42.633Z,99.90
2023-05-01T03:30:11.997Z,99.90
2023-05-01T03:32:40.754Z,99.90
2023-05-01T03:35:10.695Z,99.90
2023-05-01T03:37:39.455Z,99.90
2023-05-01T03:40:09.447Z,99.90
2023-05-01T03:42:40.245Z,99.90
2023-05-01T03:45:12.600Z,99.90
2023-05-01T03:47:44.089Z,99.90
2023-05-01T03:50:14.506Z,99.90
2023-05-01T03:52:43.314Z,99.90
2023-05-01T03:55:11.981Z,99.90
2023-05-01T03:57:41.999Z,99.90
2023-05-01T04:00:12.159Z,99.90
2023-05-01T04:02:40.908Z,99.90
2023-05-01T04:05:09.847Z,99.90
2023-05-01T04:07:38.468Z,99.90
2023-05-01T04:10:09.650Z,99.90
2023-05-01T04:12:38.276Z,99.90
2023-05-01T04:15:15.297Z,99.90
2023-05-01T04:17:45.679Z,99.90
2023-05-01T04:20:14.579Z,99.90
2023-05-01T04:22:43.148Z,99.90
2023-05-01T04:25:12.033Z,99.90
2023-05-01T04:27:46.730Z,99.90
2023-05-01T04:30:17.063Z,99.90
2023-05-01T04:32:45.782Z,99.90
2023-05-01T04:35:14.547Z,99.90
2023-05-01T04:37:43.149Z,99.90
2023-05-01T04:40:13.205Z,99.90
2023-05-01T04:42:44.019Z,99.90
2023-05-01T04:45:13.290Z,99.90
2023-05-01T04:47:44.023Z,99.90
2023-05-01T04:50:15.668Z,99.90
2023-05-01T04:52:44.357Z,99.90
2023-05-01T04:55:13.089Z,99.90
2023-05-01T04:57:41.828Z,99.90
2023-05-01T05:00:11.448Z,99.90
2023-05-01T05:02:43.054Z,99.90
2023-05-01T05:05:13.275Z,99.90
2023-05-01T05:07:41.900Z,99.90
2023-05-01T05:10:14.048Z,99.90
2023-05-01T05:12:44.566Z,99.90
2023-05-01T05:15:13.361Z,99.90
2023-05-01T05:17:42.068Z,99.90
2023-05-01T05:20:12.871Z,99.90
2023-05-01T05:22:43.712Z,99.90
2023-05-01T05:25:12.695Z,99.90
2023-05-01T05:27:41.361Z,99.90
2023-05-01T05:30:11.329Z,99.90
2023-05-01T05:32:39.997Z,99.90
2023-05-01T05:35:09.422Z,99.90
2023-05-01T05:37:39.710Z,99.90
2023-05-01T05:40:09.861Z,99.90
2023-05-01T05:42:38.611Z,99.90
2023-05-01T05:45:08.576Z,99.90
2023-05-01T05:47:37.317Z,99.90
2023-05-01T05:50:07.450Z,99.90
2023-05-01T05:52:39.657Z,99.90
2023-05-01T05:55:14.488Z,99.90
2023-05-01T05:57:43.148Z,99.90
2023-05-01T06:00:14.896Z,99.90
2023-05-01T06:02:43.660Z,99.90
2023-05-01T06:05:12.683Z,99.90
2023-05-01T06:07:43.630Z,99.90
2023-05-01T06:10:12.650Z,99.90
2023-05-01T06:12:50.114Z,99.90
2023-05-01T06:15:27.321Z,99.90
2023-05-01T06:17:56.455Z,99.90
2023-05-01T06:20:25.211Z,99.90
2023-05-01T06:22:55.562Z,99.90
2023-05-01T06:25:25.124Z,99.90
2023-05-01T06:27:53.929Z,99.90
2023-05-01T06:30:22.722Z,99.90
2023-05-01T06:32:51.429Z,99.90
2023-05-01T06:35:21.011Z,99.90
2023-05-01T06:37:49.659Z,99.90
2023-05-01T06:40:19.776Z,99.90
2023-05-01T06:42:48.447Z,99.90
2023-05-01T06:45:17.058Z,99.90
2023-05-01T06:47:45.786Z,99.90
2023-05-01T06:50:14.672Z,99.90
2023-05-01T06:52:43.481Z,99.90
2023-05-01T06:55:12.483Z,99.90
2023-05-01T06:57:43.000Z,99.90
2023-05-01T07:00:12.815Z,99.90
2023-05-01T07:02:41.700Z,99.90
2023-05-01T07:05:10.647Z,99.90
2023-05-01T07:07:44.613Z,99.90
2023-05-01T07:10:19.123Z,99.90
2023-05-01T07:12:49.100Z,99.90
2023-05-01T07:15:17.852Z,99.90
2023-05-01T07:17:46.849Z,99.90
2023-05-01T07:20:17.004Z,99.90
2023-05-01T07:22:45.612Z,99.90
2023-05-01T07:25:14.362Z,99.90
2023-05-01T07:27:42.957Z,99.90
2023-05-01T07:30:13.794Z,99.90
2023-05-01T07:32:42.416Z,99.90
2023-05-01T07:35:11.283Z,99.90
2023-05-01T07:37:39.906Z,99.90
2023-05-01T07:40:09.414Z,99.90
2023-05-01T07:42:38.023Z,99.90
2023-05-01T07:45:08.083Z,99.90
2023-05-01T07:47:38.194Z,99.90
2023-05-01T07:50:11.076Z,99.90
2023-05-01T07:52:39.829Z,99.90
2023-05-01T07:55:09.924Z,99.90
2023-05-01T07:57:38.763Z,99.90
2023-05-01T08:00:08.630Z,99.90
2023-05-01T08:02:38.799Z,99.90
2023-05-01T08:05:08.214Z,99.90
2023-05-01T08:07:36.855Z,99.90
2023-05-01T08:10:06.199Z,99.90
2023-05-01T08:12:34.849Z,99.90
2023-05-01T08:15:03.447Z,99.90
2023-05-01T08:17:32.159Z,99.90
2023-05-01T08:20:03.561Z,99.90
2023-05-01T08:22:32.446Z,99.90
2023-05-01T08:25:00.993Z,99.90
2023-05-01T08:27:32.716Z,99.90
2023-05-01T08:30:01.422Z,99.90
2023-05-01T08:32:30.684Z,99.90
2023-05-01T08:34:59.381Z,99.90
2023-05-01T08:37:29.477Z,99.90
2023-05-01T08:40:08.658Z,99.90
2023-05-01T08:42:39.091Z,99.90
2023-05-01T08:45:10.175Z,99.90
2023-05-01T08:47:40.143Z,99.90
2023-05-01T08:50:12.302Z,99.90
2023-05-01T08:52:43.635Z,99.90
2023-05-01T08:55:15.574Z,99.90
2023-05-01T08:57:46.925Z,99.90
2023-05-01T09:00:20.223Z,99.90
2023-05-01T09:02:51.368Z,99.90
2023-05-01T09:05:21.362Z,99.90
2023-05-01T09:07:51.441Z,99.90
2023-05-01T09:10:20.750Z,99.90
2023-05-01T09:12:56.282Z,99.90
2023-05-01T09:15:27.019Z,99.90
2023-05-01T09:17:56.920Z,99.90
2023-05-01T09:20:26.933Z,99.90
2023-05-01T09:22:57.888Z,99.90
2023-05-01T09:25:26.505Z,99.90
2023-05-01T09:27:56.982Z,99.90
2023-05-01T09:30:32.697Z,99.90
2023-05-01T09:33:11.828Z,99.90
2023-05-01T09:35:51.493Z,99.90
2023-05-01T09:38:23.269Z,99.90
2023-05-01T09:40:53.712Z,99.90
2023-05-01T09:43:29.805Z,99.90
2023-05-01T09:46:03.763Z,99.90
2023-05-01T09:48:35.370Z,99.90
2023-05-01T09:51:23.024Z,99.90
2023-05-01T09:53:53.441Z,99.90
2023-05-01T09:56:22.660Z,99.90
2023-05-01T09:58:53.284Z,99.90
2023-05-01T10:01:40.018Z,99.90
2023-05-01T10:04:10.086Z,99.90
2023-05-01T10:06:39.570Z,99.90
2023-05-01T10:09:17.787Z,99.90
2023-05-01T10:11:52.130Z,99.90
2023-05-01T10:14:27.030Z,99.90
2023-05-01T10:16:58.054Z,99.90
2023-05-01T10:19:27.193Z,99.90
2023-05-01T10:21:55.874Z,99.90
2023-05-01T10:24:26.074Z,99.90
2023-05-01T10:26:55.512Z,99.90
2023-05-01T10:29:25.376Z,99.90
2023-05-01T10:31:54.100Z,99.90
2023-05-01T10:34:26.206Z,99.90
2023-05-01T10:37:03.901Z,99.90
2023-05-01T10:39:34.929Z,99.90
2023-05-01T10:42:10.994Z,99.90
2023-05-01T10:44:39.952Z,99.90
2023-05-01T10:47:45.673Z,99.90
2023-05-01T10:50:16.078Z,99.90
2023-05-01T10:53:18.240Z,99.90
2023-05-01T10:55:49.522Z,99.90
2023-05-01T10:58:59.905Z,99.90
2023-05-01T11:01:33.278Z,99.90
2023-05-01T11:04:04.206Z,99.90
2023-05-01T11:06:33.786Z,99.90
2023-05-01T11:09:04.525Z,99.90
2023-05-01T11:11:52.574Z,99.90
2023-05-01T11:14:21.167Z,99.90
2023-05-01T11:16:50.035Z,99.90
2023-05-01T11:19:49.233Z,99.90
2023-05-01T11:22:19.394Z,99.90
2023-05-01T11:24:48.342Z,99.90
2023-05-01T11:27:18.523Z,99.90
2023-05-01T11:29:48.759Z,99.90
2023-05-01T11:32:20.838Z,99.90
2023-05-01T11:34:52.146Z,99.90
2023-05-01T11:37:21.027Z,99.90
2023-05-01T11:39:53.768Z,99.60
2023-05-01T11:42:23.874Z,98.90
2023-05-01T11:45:10.942Z,99.10
2023-05-01T11:47:39.810Z,98.50
2023-05-01T11:50:09.706Z,98.90
2023-05-01T11:52:46.537Z,98.80
2023-05-01T11:55:15.184Z,98.70
2023-05-01T11:57:49.926Z,98.50
2023-05-01T12:00:28.554Z,98.20
2023-05-01T12:02:59.308Z,97.70
2023-05-01T12:05:29.549Z,97.70
2023-05-01T12:08:12.365Z,97.70
2023-05-01T12:10:43.146Z,96.70
2023-05-01T12:13:14.823Z,96.50
2023-05-01T12:15:46.146Z,96.50
2023-05-01T12:18:16.223Z,96.10
2023-05-01T12:20:47.393Z,95.90
2023-05-01T12:23:17.225Z,95.60
2023-05-01T12:25:47.243Z,95.50
2023-05-01T12:28:19.724Z,95.40
2023-05-01T12:30:50.136Z,95.10
2023-05-01T12:33:20.521Z,95.00
2023-05-01T12:35:51.495Z,94.80
2023-05-01T12:38:21.762Z,94.70
2023-05-01T12:40:54.925Z,95.20
2023-05-01T12:43:32.205Z,94.90
2023-05-01T12:46:01.194Z,94.90
2023-05-01T12:48:30.546Z,94.40
2023-05-01T12:50:59.241Z,94.00
2023-05-01T12:53:29.746Z,93.60
2023-05-01T12:55:59.866Z,93.40
2023-05-01T12:58:38.446Z,92.90
2023-05-01T13:01:07.403Z,92.80
2023-05-01T13:03:39.344Z,92.70
2023-05-01T13:06:09.598Z,92.50
2023-05-01T13:08:39.802Z,93.00
2023-05-01T13:11:13.231Z,92.50
2023-05-01T13:13:45.021Z,92.50
2023-05-01T13:16:15.733Z,92.20
2023-05-01T13:18:46.350Z,92.60
2023-05-01T13:21:17.152Z,92.60
2023-05-01T13:23:54.924Z,92.60
2023-05-01T13:26:29.011Z,92.60
2023-05-01T13:29:00.204Z,91.90
2023-05-01T13:31:29.338Z,91.50
2023-05-01T13:34:00.194Z,90.90
2023-05-01T13:36:34.014Z,90.30
2023-05-01T13:39:02.638Z,90.00
2023-05-01T13:41:31.335Z,90.30
2023-05-01T13:44:01.474Z,90.10
2023-05-01T13:46:30.600Z,90.00
2023-05-01T13:49:08.084Z,89.20
2023-05-01T13:51:37.918Z,87.90
2023-05-01T13:54:08.135Z,88.20
2023-05-01T13:56:37.392Z,87.70
2023-05-01T13:59:07.756Z,86.70
2023-05-01T14:01:42.584Z,86.80
2023-05-01T14:04:12.194Z,88.30
2023-05-01T14:06:47.667Z,88.40
2023-05-01T14:09:18.687Z,89.50
2023-05-01T14:11:48.912Z,90.00
2023-05-01T14:14:19.798Z,90.00
2023-05-01T14:16:49.535Z,89.50
2023-05-01T14:19:19.141Z,90.10
2023-05-01T14:21:48.017Z,90.30
2023-05-01T14:24:18.972Z,90.50
2023-05-01T14:26:50.474Z,90.60
2023-05-01T14:29:24.863Z,90.80
2023-05-01T14:31:54.744Z,91.10
2023-05-01T14:34:23.504Z,91.30
2023-05-01T14:36:52.214Z,91.30
2023-05-01T14:39:20.825Z,91.50
2023-05-01T14:41:49.687Z,91.60
2023-05-01T14:44:20.822Z,91.70
2023-05-01T14:46:52.040Z,91.60
2023-05-01T14:49:22.649Z,91.60
2023-05-01T14:51:51.710Z,91.60
2023-05-01T14:54:21.389Z,91.60
2023-05-01T14:56:50.355Z,91.60
2023-05-01T14:59:18.917Z,91.60
2023-05-01T15:01:47.605Z,91.80
2023-05-01T15:04:18.123Z,91.80
2023-05-01T15:06:47.777Z,91.80
2023-05-01T15:09:16.420Z,91.80
2023-05-01T15:11:44.995Z,91.90
2023-05-01T15:14:13.597Z,92.10
2023-05-01T15:16:42.241Z,92.00
2023-05-01T15:19:10.844Z,92.00
2023-05-01T15:21:40.794Z,91.80
2023-05-01T15:24:10.432Z,91.90
2023-05-01T15:26:39.091Z,91.90
2023-05-01T15:29:07.641Z,91.90
2023-05-01T15:31:36.245Z,91.80
2023-05-01T15:34:04.881Z,91.90
2023-05-01T15:36:33.475Z,91.90
2023-05-01T15:39:06.153Z,91.70
2023-05-01T15:41:34.751Z,91.80
2023-05-01T15:44:03.355Z,91.70
2023-05-01T15:46:32.173Z,91.70
2023-05-01T15:49:01.348Z,91.60
2023-05-01T15:51:31.290Z,91.40
2023-05-01T15:54:00.274Z,91.30
2023-05-01T15:56:30.917Z,90.90
2023-05-01T15:59:03.633Z,90.50
2023-05-01T16:01:33.254Z,90.50
2023-05-01T16:04:03.548Z,90.90
2023-05-01T16:06:32.801Z,91.00
2023-05-01T16:09:01.457Z,91.10
2023-05-01T16:11:31.870Z,91.10
2023-05-01T16:14:00.455Z,91.70
2023-05-01T16:16:30.499Z,91.70
2023-05-01T16:19:00.462Z,91.70
2023-05-01T16:21:29.694Z,91.50
2023-05-01T16:23:58.548Z,91.60
2023-05-01T16:26:28.841Z,91.60
2023-05-01T16:29:01.247Z,91.60
2023-05-01T16:31:34.932Z,91.70
2023-05-01T16:34:03.624Z,91.80
2023-05-01T16:36:32.457Z,91.80
2023-05-01T16:39:01.176Z,91.90
2023-05-01T16:41:30.128Z,92.40
2023-05-01T16:44:01.683Z,92.70
2023-05-01T16:46:33.561Z,93.00
2023-05-01T16:49:02.298Z,92.80
2023-05-01T16:51:33.563Z,92.70
2023-05-01T16:54:02.261Z,92.40
2023-05-01T16:56:33.075Z,92.40
2023-05-01T16:59:03.178Z,92.70
2023-05-01T17:01:34.519Z,92.80
2023-05-01T17:04:03.388Z,92.70
2023-05-01T17:06:32.471Z,92.60
2023-05-01T17:09:01.299Z,92.60
2023-05-01T17:11:33.247Z,92.50
2023-05-01T17:14:04.972Z,92.20
2023-05-01T17:16:34.451Z,92.10
2023-05-01T17:19:08.803Z,92.60
2023-05-01T17:21:37.591Z,92.90
2023-05-01T17:24:06.564Z,93.10
2023-05-01T17:26:35.264Z,93.10
2023-05-01T17:29:05.371Z,93.30
2023-05-01T17:31:34.513Z,93.90
2023-05-01T17:34:03.392Z,94.50
2023-05-01T17:36:32.312Z,95.40
2023-05-01T17:39:01.509Z,95.80
2023-05-01T17:41:30.395Z,96.10
2023-05-01T17:43:59.102Z,96.50
2023-05-01T17:46:29.411Z,96.70
2023-05-01T17:49:01.148Z,98.10
2023-05-01T17:51:33.158Z,98.00
2023-05-01T17:54:02.207Z,98.10
2023-05-01T17:56:31.024Z,98.40
2023-05-01T17:59:05.236Z,98.50
2023-05-01T18:01:36.702Z,98.90
2023-05-01T18:04:09.113Z,99.00
2023-05-01T18:06:38.287Z,99.30
2023-05-01T18:09:07.700Z,99.80
2023-05-01T18:11:36.385Z,99.90
2023-05-01T18:14:05.376Z,99.90
2023-05-01T18:16:35.530Z,99.90
2023-05-01T18:19:04.380Z,99.90
2023-05-01T18:21:33.808Z,99.90
2023-05-01T18:24:03.528Z,99.90
2023-05-01T18:26:33.986Z,99.90
2023-05-01T18:29:02.752Z,99.90
2023-05-01T18:31:34.072Z,99.90
2023-05-01T18:34:04.477Z,99.90
2023-05-01T18:36:33.320Z,99.90
2023-05-01T18:39:02.112Z,99.90
2023-05-01T18:41:30.986Z,99.90
2023-05-01T18:44:01.734Z,99.90
2023-05-01T18:46:30.626Z,99.90
2023-05-01T18:48:59.909Z,99.90
2023-05-01T18:51:33.089Z,99.90
2023-05-01T18:54:04.242Z,99.90
2023-05-01T18:56:33.546Z,99.90
2023-05-01T18:59:02.692Z,99.90
2023-05-01T19:01:33.628Z,99.90
2023-05-01T19:04:02.475Z,99.90
2023-05-01T19:06:33.590Z,99.90
2023-05-01T19:09:02.512Z,99.90
2023-05-01T19:11:32.006Z,99.90
2023-05-01T19:14:00.663Z,99.90
2023-05-01T19:16:29.527Z,99.90
2023-05-01T19:18:58.286Z,99.90
2023-05-01T19:21:28.363Z,99.90
2023-05-01T19:23:58.785Z,99.90
2023-05-01T19:26:33.735Z,99.90
2023-05-01T19:29:02.350Z,99.90
2023-05-01T19:31:33.532Z,99.90
2023-05-01T19:34:02.221Z,99.90
2023-05-01T19:36:31.625Z,99.90
2023-05-01T19:39:01.836Z,99.90
2023-05-01T19:41:34.001Z,99.90
2023-05-01T19:44:02.775Z,99.90
2023-05-01T19:46:31.621Z,99.90
2023-05-01T19:49:00.731Z,99.90
2023-05-01T19:51:29.580Z,99.90
2023-05-01T19:53:58.243Z,99.90
2023-05-01T19:56:28.483Z,99.90
2023-05-01T19:59:01.002Z,99.90
2023-05-01T20:01:31.527Z,99.90
2023-05-01T20:04:00.708Z,99.90
2023-05-01T20:06:32.392Z,99.90
2023-05-01T20:09:04.052Z,99.90
2023-05-01T20:11:37.311Z,99.90
2023-05-01T20:14:06.038Z,99.90
2023-05-01T20:16:35.904Z,99.90
2023-05-01T20:19:04.667Z,99.90
2023-05-01T20:21:33.760Z,99.90
2023-05-01T20:24:02.439Z,99.90
2023-05-01T20:26:31.522Z,99.90
2023-05-01T20:29:01.776Z,99.90
2023-05-01T20:31:30.777Z,99.90
2023-05-01T20:33:59.647Z,99.90
2023-05-01T20:36:30.361Z,99.90
2023-05-01T20:38:59.056Z,99.90
2023-05-01T20:41:28.003Z,99.90
2023-05-01T20:43:56.705Z,99.90
2023-05-01T20:46:26.790Z,99.90
2023-05-01T20:48:56.058Z,99.90
2023-05-01T20:51:27.276Z,99.90
2023-05-01T20:53:56.065Z,99.90
2023-05-01T20:56:27.145Z,99.90
2023-05-01T20:58:56.161Z,99.90
2023-05-01T21:01:26.310Z,99.90
2023-05-01T21:03:55.218Z,99.90
2023-05-01T21:06:24.036Z,99.90
2023-05-01T21:08:53.260Z,99.90
2023-05-01T21:11:25.141Z,99.90
2023-05-01T21:13:53.746Z,99.90
2023-05-01T21:16:22.397Z,99.90
2023-05-01T21:18:52.489Z,99.90
2023-05-01T21:21:21.173Z,99.90
2023-05-01T21:23:57.264Z,99.90
2023-05-01T21:26:25.905Z,99.90
2023-05-01T21:28:54.671Z,99.90
2023-05-01T21:31:26.959Z,99.90
2023-05-01T21:34:02.673Z,99.90
2023-05-01T21:36:32.157Z,99.90
2023-05-01T21:39:03.909Z,99.90
2023-05-01T21:41:32.571Z,99.90
2023-05-01T21:44:01.313Z,99.90
2023-05-01T21:46:30.148Z,99.90
2023-05-01T21:49:00.156Z,99.90
2023-05-01T21:51:29.781Z,99.90
2023-05-01T21:54:00.274Z,99.90
2023-05-01T21:56:29.072Z,99.90
2023-05-01T21:59:01.936Z,99.90
2023-05-01T22:01:30.898Z,99.90
2023-05-01T22:04:01.178Z,99.90
2023-05-01T22:06:32.517Z,99.90
2023-05-01T22:09:01.214Z,99.90
2023-05-01T22:11:30.001Z,99.90
2023-05-01T22:13:58.893Z,99.90
2023-05-01T22:16:27.602Z,99.90
2023-05-01T22:18:56.506Z,99.90
2023-05-01T22:21:26.673Z,99.90
2023-05-01T22:23:55.686Z,99.90
2023-05-01T22:26:24.312Z,99.90
2023-05-01T22:28:53.083Z,99.90
2023-05-01T22:31:21.806Z,99.90
2023-05-01T22:33:50.744Z,99.90
2023-05-01T22:36:19.343Z,99.90
2023-05-01T22:38:49.359Z,99.90
2023-05-01T22:41:18.259Z,99.90
2023-05-01T22:43:46.889Z,99.90
2023-05-01T22:46:15.453Z,99.90
2023-05-01T22:48:48.700Z,99.90
2023-05-01T22:51:17.310Z,99.90
2023-05-01T22:53:46.031Z,99.90
2023-05-01T22:56:16.336Z,99.90
2023-05-01T22:58:45.045Z,99.90
2023-05-01T23:01:13.748Z,99.90
2023-05-01T23:03:42.560Z,99.90
2023-05-01T23:06:11.402Z,99.90
2023-05-01T23:08:40.083Z,99.90
2023-05-01T23:11:11.381Z,99.90
2023-05-01T23:13:47.677Z,99.90
2023-05-01T23:16:17.169Z,99.90
2023-05-01T23:18:46.445Z,99.90
2023-05-01T23:21:18.579Z,99.90
2023-05-01T23:23:48.258Z,99.90
2023-05-01T23:26:25.580Z,99.90
2023-05-01T23:28:55.748Z,99.90
2023-05-01T23:31:26.513Z,99.90
2023-05-01T23:33:58.087Z,99.90
2023-05-01T23:36:28.210Z,99.90
2023-05-01T23:38:56.848Z,99.90
2023-05-01T23:41:26.130Z,99.90
2023-05-01T23:43:59.410Z,99.90
2023-05-01T23:46:28.218Z,99.90
2023-05-01T23:48:57.702Z,99.90
2023-05-01T23:51:26.377Z,99.90
2023-05-01T23:53:55.121Z,99.90
2023-05-01T23:56:23.756Z,99.90
2023-05-01T23:58:52.377Z,99.90
